Time;durP1;ratioP1;P1;durP2;ratioP2;P2;SDS_P1;SDS_P2;PMS_P1;PMS_P2;Temp;Humidity;BMP_temperature;BMP_pressure;BME280_temperature;BME280_humidity;BME280_pressure;Samples;Min_cycle;Max_cycle;Signal;HPM_P1;HPM_P2
2024/04/10 00:02:19;;;;;;;1.60;0.63;;;13.60;94.00;;;;;;5447923;26;20010;-65
2024/04/10 00:04:48;;;;;;;4.18;0.95;;;13.50;93.80;;;;;;5449493;26;20087;-65
2024/04/10 00:07:14;;;;;;;2.78;0.63;;;13.40;94.20;;;;;;5444839;26;20053;-65
2024/04/10 00:09:41;;;;;;;1.40;0.60;;;13.30;94.20;;;;;;5448037;26;20473;-65
2024/04/10 00:12:07;;;;;;;3.17;0.60;;;13.30;94.20;;;;;;5419150;26;20021;-65
2024/04/10 00:14:37;;;;;;;2.03;0.90;;;13.40;94.40;;;;;;5420517;26;20046;-66
2024/04/10 00:17:03;;;;;;;2.38;0.88;;;13.50;94.10;;;;;;5449348;26;20849;-65
2024/04/10 00:19:28;;;;;;;1.88;0.50;;;13.60;93.70;;;;;;5452535;26;19990;-65
2024/04/10 00:21:54;;;;;;;0.90;0.60;;;13.50;93.70;;;;;;5438995;26;19998;-66
2024/04/10 00:24:21;;;;;;;3.97;0.60;;;13.60;94.20;;;;;;5441765;26;20060;-65
2024/04/10 00:26:50;;;;;;;4.65;0.95;;;13.60;93.90;;;;;;5415932;26;20046;-65
2024/04/10 00:29:16;;;;;;;1.80;0.80;;;13.50;93.80;;;;;;5437793;26;19995;-65
2024/04/10 00:31:42;;;;;;;5.72;1.48;;;13.30;94.50;;;;;;5436569;26;19999;-65
2024/04/10 00:34:08;;;;;;;3.58;0.82;;;13.20;94.40;;;;;;5446156;26;20014;-65
2024/04/10 00:36:34;;;;;;;4.00;0.88;;;13.30;94.70;;;;;;5445642;26;20011;-65
2024/04/10 00:39:00;;;;;;;4.85;1.00;;;13.30;94.90;;;;;;5449236;26;20086;-65
2024/04/10 00:41:25;;;;;;;1.85;0.60;;;13.10;94.70;;;;;;5441025;26;19999;-65
2024/04/10 00:43:51;;;;;;;2.22;0.65;;;13.20;94.70;;;;;;5450474;26;20010;-66
2024/04/10 00:46:19;;;;;;;5.55;1.10;;;13.20;95.00;;;;;;5437919;26;20003;-66
2024/04/10 00:48:46;;;;;;;2.40;0.68;;;13.20;94.80;;;;;;5439882;26;19995;-66
2024/04/10 00:51:16;;;;;;;5.05;0.85;;;13.20;94.80;;;;;;5447250;26;20003;-65
2024/04/10 00:53:43;;;;;;;3.65;0.90;;;13.10;94.80;;;;;;5451417;26;20030;-66
2024/04/10 00:56:10;;;;;;;3.65;0.80;;;13.10;94.80;;;;;;5447450;26;19998;-66
2024/04/10 00:58:37;;;;;;;2.58;0.68;;;13.10;94.70;;;;;;5442831;26;20006;-66
2024/04/10 01:01:04;;;;;;;1.63;0.68;;;13.00;95.10;;;;;;5447778;26;20347;-66
2024/04/10 01:03:30;;;;;;;7.22;0.70;;;13.10;95.20;;;;;;5443422;26;20023;-66
2024/04/10 01:06:01;;;;;;;2.65;0.75;;;13.10;94.80;;;;;;5446278;26;20009;-65
2024/04/10 01:08:28;;;;;;;1.10;0.70;;;13.20;94.90;;;;;;5432591;26;20078;-65
2024/04/10 01:10:54;;;;;;;4.05;0.68;;;13.30;94.70;;;;;;5447434;26;20044;-65
2024/04/10 01:13:20;;;;;;;3.60;0.70;;;13.40;94.40;;;;;;5448600;26;20042;-65
2024/04/10 01:15:46;;;;;;;3.60;0.73;;;13.40;94.20;;;;;;5458322;26;20685;-65
2024/04/10 01:18:13;;;;;;;3.17;1.35;;;13.40;93.80;;;;;;5451514;26;20004;-66
2024/04/10 01:20:38;;;;;;;1.20;0.63;;;13.40;93.90;;;;;;5448669;26;20010;-66
2024/04/10 01:23:04;;;;;;;2.58;0.73;;;13.50;93.90;;;;;;5448523;26;20003;-66
2024/04/10 01:25:31;;;;;;;4.22;0.80;;;13.50;93.10;;;;;;5450966;26;20848;-66
2024/04/10 01:27:57;;;;;;;2.50;0.73;;;13.50;93.20;;;;;;5447297;26;20013;-65
2024/04/10 01:30:23;;;;;;;2.67;0.60;;;13.50;93.10;;;;;;5454666;26;20095;-68
2024/04/10 01:32:49;;;;;;;2.45;0.63;;;13.60;93.20;;;;;;5444040;26;19995;-68
2024/04/10 01:35:16;;;;;;;2.78;0.75;;;13.60;92.90;;;;;;5453665;26;20016;-68
2024/04/10 01:37:42;;;;;;;2.08;0.52;;;13.70;92.70;;;;;;5451015;26;20013;-67
2024/04/10 01:40:08;;;;;;;3.38;0.77;;;13.70;93.00;;;;;;5441066;26;20587;-68
2024/04/10 01:42:34;;;;;;;0.73;0.60;;;13.80;92.30;;;;;;5413985;26;20455;-68
2024/04/10 01:45:01;;;;;;;2.90;0.57;;;13.90;92.10;;;;;;5446058;26;20027;-68
2024/04/10 01:47:27;;;;;;;2.65;0.63;;;13.90;91.50;;;;;;5438707;26;20002;-69
2024/04/10 01:49:53;;;;;;;2.42;1.00;;;14.00;91.70;;;;;;5447935;26;20023;-69
2024/04/10 01:52:19;;;;;;;4.45;0.73;;;14.00;90.90;;;;;;5448548;26;20134;-68
2024/04/10 01:54:46;;;;;;;2.97;0.80;;;14.00;90.70;;;;;;5445607;26;20007;-68
2024/04/10 01:57:12;;;;;;;1.90;0.85;;;14.00;90.80;;;;;;5443318;26;19999;-68
2024/04/10 01:59:38;;;;;;;1.95;0.70;;;13.90;90.70;;;;;;5447128;26;20017;-68
2024/04/10 02:02:04;;;;;;;1.52;0.50;;;13.90;90.80;;;;;;5454153;26;19999;-68
2024/04/10 02:04:29;;;;;;;2.13;0.60;;;14.00;90.60;;;;;;5453705;26;20002;-66
2024/04/10 02:06:55;;;;;;;2.65;0.80;;;14.00;90.80;;;;;;5447754;26;21063;-66
2024/04/10 02:09:21;;;;;;;1.52;0.55;;;13.90;89.90;;;;;;5437870;26;19999;-66
2024/04/10 02:11:47;;;;;;;3.17;0.90;;;13.80;90.00;;;;;;5443767;26;19998;-66
2024/04/10 02:14:13;;;;;;;2.92;0.60;;;13.80;90.10;;;;;;5442317;26;20013;-65
2024/04/10 02:16:40;;;;;;;4.72;0.77;;;13.60;90.30;;;;;;5456552;26;19998;-66
2024/04/10 02:19:06;;;;;;;1.00;0.45;;;13.60;90.50;;;;;;5447172;26;20014;-66
2024/04/10 02:21:32;;;;;;;2.00;0.73;;;13.60;90.50;;;;;;5417396;26;20014;-65
2024/04/10 02:23:58;;;;;;;2.63;0.90;;;13.70;90.80;;;;;;5449469;26;20069;-66
2024/04/10 02:26:23;;;;;;;3.28;0.68;;;13.70;90.90;;;;;;5455220;26;20011;-66
2024/04/10 02:28:49;;;;;;;1.48;0.70;;;13.80;90.90;;;;;;5448760;26;20715;-66
2024/04/10 02:31:15;;;;;;;4.35;0.60;;;13.80;90.70;;;;;;5441101;26;20009;-66
2024/04/10 02:33:41;;;;;;;2.03;0.70;;;13.80;90.40;;;;;;5445481;26;19999;-65
2024/04/10 02:36:08;;;;;;;3.17;0.50;;;13.80;90.50;;;;;;5446292;26;20007;-66
2024/04/10 02:38:35;;;;;;;2.78;0.50;;;13.80;90.80;;;;;;5440704;26;19995;-66
2024/04/10 02:41:02;;;;;;;2.72;0.60;;;13.90;91.20;;;;;;5444797;26;20011;-65
2024/04/10 02:43:28;;;;;;;2.63;0.70;;;13.90;91.20;;;;;;5443717;26;20006;-66
2024/04/10 02:45:58;;;;;;;1.85;0.47;;;14.00;91.30;;;;;;5442684;26;20011;-66
2024/04/10 02:48:25;;;;;;;0.68;0.50;;;14.00;90.50;;;;;;5445744;26;20478;-66
2024/04/10 02:50:51;;;;;;;1.90;0.77;;;13.90;90.80;;;;;;5449785;26;20003;-66
2024/04/10 02:53:18;;;;;;;3.58;0.65;;;13.90;91.10;;;;;;5443275;26;20009;-66
2024/04/10 02:55:49;;;;;;;5.15;0.85;;;13.90;91.10;;;;;;5442593;26;20005;-66
2024/04/10 02:58:16;;;;;;;2.83;0.77;;;13.90;91.00;;;;;;5441508;26;20009;-66
2024/04/10 03:00:45;;;;;;;2.15;0.80;;;13.80;91.20;;;;;;5448271;26;19994;-66
2024/04/10 03:03:11;;;;;;;1.05;0.52;;;13.80;91.20;;;;;;5447451;26;20415;-65
2024/04/10 03:06:59;;;;;;;2.17;0.88;;;13.80;91.40;;;;;;5465542;25;20347;-66
2024/04/10 03:09:25;;;;;;;3.00;2.22;;;13.90;91.50;;;;;;5431019;26;20011;-66
2024/04/10 03:11:51;;;;;;;1.92;0.90;;;13.80;91.60;;;;;;5427669;26;19995;-66
2024/04/10 03:14:17;;;;;;;1.55;0.70;;;13.80;91.30;;;;;;5425049;26;20006;-66
2024/04/10 03:16:42;;;;;;;3.63;0.77;;;13.80;91.20;;;;;;5426991;26;20014;-66
2024/04/10 03:19:08;;;;;;;1.20;0.63;;;13.80;91.60;;;;;;5425105;26;20315;-66
2024/04/10 03:21:34;;;;;;;2.45;0.80;;;13.80;91.70;;;;;;5421689;26;20085;-66
2024/04/10 03:24:00;;;;;;;1.58;0.40;;;13.80;91.40;;;;;;5422735;26;20005;-66
2024/04/10 03:26:25;;;;;;;1.90;0.40;;;13.80;91.50;;;;;;5420819;26;20059;-66
2024/04/10 03:28:51;;;;;;;1.83;1.00;;;13.80;91.80;;;;;;5425229;26;20014;-66
2024/04/10 03:31:17;;;;;;;3.10;0.77;;;13.70;91.80;;;;;;5421439;26;20004;-66
2024/04/10 03:33:42;;;;;;;5.18;0.65;;;13.70;92.00;;;;;;5424138;26;20010;-66
2024/04/10 03:36:08;;;;;;;3.22;1.10;;;13.80;91.90;;;;;;5420187;26;20007;-66
2024/04/10 03:38:34;;;;;;;1.70;0.90;;;13.70;92.10;;;;;;5419908;26;20077;-66
2024/04/10 03:41:00;;;;;;;1.38;0.63;;;13.70;91.80;;;;;;5426029;26;20833;-66
2024/04/10 03:43:26;;;;;;;3.80;0.70;;;13.70;91.30;;;;;;5423377;26;19995;-66
2024/04/10 03:45:53;;;;;;;3.47;0.82;;;13.70;91.50;;;;;;5422237;26;20007;-67
2024/04/10 03:48:18;;;;;;;1.90;0.75;;;13.60;92.00;;;;;;5428571;26;19998;-66
2024/04/10 03:50:44;;;;;;;3.35;1.27;;;13.60;91.90;;;;;;5417924;26;20003;-66
2024/04/10 03:53:10;;;;;;;3.50;0.70;;;13.60;92.00;;;;;;5417939;26;20010;-66
2024/04/10 03:55:36;;;;;;;3.50;0.77;;;13.60;92.20;;;;;;5413118;26;20081;-66
2024/04/10 03:58:01;;;;;;;1.88;0.95;;;13.60;92.10;;;;;;5418255;26;20006;-66
2024/04/10 04:00:27;;;;;;;2.65;0.90;;;13.60;92.00;;;;;;5425128;26;19994;-66
2024/04/10 04:02:53;;;;;;;1.75;0.70;;;13.60;91.90;;;;;;5419961;26;20059;-66
2024/04/10 04:05:18;;;;;;;1.70;0.73;;;13.60;91.90;;;;;;5411339;26;20417;-66
2024/04/10 04:07:44;;;;;;;1.50;0.82;;;13.60;92.00;;;;;;5421194;26;20010;-66
2024/04/10 04:10:10;;;;;;;2.33;1.10;;;13.60;92.00;;;;;;5422540;26;20095;-66
2024/04/10 04:12:36;;;;;;;3.15;1.00;;;13.60;91.20;;;;;;5419202;26;20071;-66
2024/04/10 04:15:02;;;;;;;3.80;0.90;;;13.50;91.60;;;;;;5423727;26;20006;-66
2024/04/10 04:17:28;;;;;;;3.92;1.20;;;13.50;91.90;;;;;;5414873;26;20428;-66
2024/04/10 04:19:54;;;;;;;3.72;0.90;;;13.60;92.00;;;;;;5405146;26;20039;-66
2024/04/10 04:22:21;;;;;;;3.22;1.00;;;13.60;92.20;;;;;;5406784;26;20003;-66
2024/04/10 04:24:46;;;;;;;2.78;0.80;;;13.60;92.10;;;;;;5403014;26;20011;-66
2024/04/10 04:27:14;;;;;;;2.28;0.88;;;13.50;92.30;;;;;;5405711;26;20007;-66
2024/04/10 04:29:40;;;;;;;2.30;0.60;;;13.50;92.40;;;;;;5409731;26;20006;-66
2024/04/10 04:32:06;;;;;;;4.50;1.17;;;13.50;92.60;;;;;;5404130;26;20012;-66
2024/04/10 04:34:32;;;;;;;2.78;0.80;;;13.50;92.80;;;;;;5402546;26;20084;-66
2024/04/10 04:36:59;;;;;;;4.00;0.90;;;13.50;92.80;;;;;;5404543;26;19999;-66
2024/04/10 04:39:25;;;;;;;3.72;0.90;;;13.50;91.60;;;;;;5409267;26;19995;-66
2024/04/10 04:41:51;;;;;;;2.95;1.05;;;13.40;91.90;;;;;;5400430;26;20062;-66
2024/04/10 04:44:17;;;;;;;4.70;1.42;;;13.40;91.80;;;;;;5412167;26;20011;-66
2024/04/10 04:46:43;;;;;;;2.70;1.13;;;13.40;92.00;;;;;;5405043;26;20628;-67
2024/04/10 04:49:09;;;;;;;4.10;1.20;;;13.20;91.90;;;;;;5403317;26;19999;-66
2024/04/10 04:51:35;;;;;;;2.95;1.02;;;13.20;92.10;;;;;;5407904;26;20067;-64
2024/04/10 04:54:00;;;;;;;3.30;1.05;;;13.20;92.30;;;;;;5399597;26;20032;-66
2024/04/10 04:56:26;;;;;;;1.98;0.98;;;13.30;92.40;;;;;;5404028;26;20011;-66
2024/04/10 04:58:52;;;;;;;4.85;1.50;;;13.10;92.50;;;;;;5408259;26;20746;-68
2024/04/10 05:01:18;;;;;;;3.05;1.00;;;13.10;92.30;;;;;;5402071;26;20018;-69
2024/04/10 05:06:28;;;;;;;4.97;1.27;;;13.00;92.40;;;;;;5406393;26;20351;-68
2024/04/10 05:08:53;;;;;;;2.55;0.98;;;13.00;92.30;;;;;;5411139;26;20050;-68
2024/04/10 05:11:21;;;;;;;4.13;1.27;;;13.10;92.60;;;;;;5404955;26;20010;-68
2024/04/10 05:13:46;;;;;;;4.38;0.93;;;13.10;92.20;;;;;;5409252;26;20557;-68
2024/04/10 05:16:12;;;;;;;4.03;1.58;;;13.20;92.40;;;;;;5422528;26;20009;-69
2024/04/10 05:18:38;;;;;;;5.07;0.80;;;13.30;92.40;;;;;;5409802;26;21198;-69
2024/04/10 05:21:04;;;;;;;2.95;1.40;;;13.40;92.10;;;;;;5398647;26;20787;-68
2024/04/10 05:23:29;;;;;;;2.22;1.30;;;13.40;92.00;;;;;;5408095;26;20010;-69
2024/04/10 05:26:04;;;;;;;6.55;1.30;;;13.50;91.80;;;;;;5405399;26;21013;-67
2024/04/10 05:28:31;;;;;;;3.60;1.40;;;13.40;91.70;;;;;;5406263;26;20015;-68
2024/04/10 05:31:04;;;;;;;5.55;1.65;;;13.50;91.50;;;;;;5404418;26;20000;-67
2024/04/10 05:33:30;;;;;;;6.40;1.40;;;13.50;91.40;;;;;;5409766;26;19991;-68
2024/04/10 05:36:04;;;;;;;3.17;1.50;;;13.50;91.70;;;;;;5401698;26;20026;-68
2024/04/10 05:38:31;;;;;;;4.95;1.73;;;13.50;91.80;;;;;;5409395;26;19995;-68
2024/04/10 05:40:57;;;;;;;5.38;2.17;;;13.50;91.50;;;;;;5400356;26;20996;-68
2024/04/10 05:43:23;;;;;;;2.05;1.60;;;13.50;91.40;;;;;;5408983;26;20004;-68
2024/04/10 05:46:07;;;;;;;8.38;1.83;;;13.50;91.40;;;;;;5409401;26;20477;-69
2024/04/10 05:48:32;;;;;;;2.17;1.50;;;13.60;91.30;;;;;;5408732;26;20013;-69
2024/04/10 05:50:58;;;;;;;5.57;1.63;;;13.60;91.40;;;;;;5408953;26;19994;-69
2024/04/10 05:53:24;;;;;;;2.58;1.27;;;13.70;91.50;;;;;;5408308;26;20119;-69
2024/04/10 05:55:50;;;;;;;5.10;1.65;;;13.80;91.40;;;;;;5407802;26;20011;-68
2024/04/10 05:58:16;;;;;;;3.95;1.75;;;13.70;90.60;;;;;;5406669;26;19998;-68
2024/04/10 06:00:43;;;;;;;3.65;1.73;;;13.80;91.10;;;;;;5403185;26;20015;-69
2024/04/10 06:03:09;;;;;;;4.90;1.70;;;13.70;91.30;;;;;;5395878;26;20459;-68
2024/04/10 06:05:35;;;;;;;5.00;1.50;;;13.80;91.20;;;;;;5402925;26;20003;-69
2024/04/10 06:08:00;;;;;;;4.20;1.45;;;13.80;91.30;;;;;;5406385;26;20011;-68
2024/04/10 06:10:26;;;;;;;4.18;1.48;;;13.80;91.20;;;;;;5404624;26;20055;-68
2024/04/10 06:12:52;;;;;;;2.97;1.23;;;13.90;91.20;;;;;;5404843;26;20071;-68
2024/04/10 06:15:18;;;;;;;4.55;1.83;;;14.00;91.00;;;;;;5405160;26;19995;-68
2024/04/10 06:17:43;;;;;;;2.75;1.55;;;14.10;91.00;;;;;;5406873;26;20081;-68
2024/04/10 06:20:13;;;;;;;6.45;2.13;;;14.10;91.10;;;;;;5403422;26;19996;-68
2024/04/10 06:22:39;;;;;;;9.18;2.65;;;14.20;91.00;;;;;;5403110;26;20422;-69
2024/04/10 06:25:05;;;;;;;11.10;4.60;;;14.20;90.80;;;;;;5405825;26;19990;-68
2024/04/10 06:27:31;;;;;;;9.25;4.22;;;14.30;90.80;;;;;;5401293;26;20015;-68
2024/04/10 06:29:57;;;;;;;10.07;3.53;;;14.40;90.90;;;;;;5405789;26;20014;-69
2024/04/10 06:32:23;;;;;;;12.88;5.72;;;14.50;90.60;;;;;;5407824;26;20004;-68
2024/04/10 06:34:48;;;;;;;10.23;5.85;;;14.50;90.40;;;;;;5405377;26;20635;-69
2024/04/10 06:37:17;;;;;;;11.82;5.57;;;14.60;90.70;;;;;;5405669;26;20025;-68
2024/04/10 06:39:43;;;;;;;7.03;2.67;;;14.60;90.80;;;;;;5406105;26;20073;-68
2024/04/10 06:42:09;;;;;;;7.38;2.50;;;14.40;90.10;;;;;;5408197;26;20007;-68
2024/04/10 06:44:35;;;;;;;6.72;2.53;;;14.40;90.70;;;;;;5400458;26;20462;-69
2024/04/10 06:47:02;;;;;;;6.35;2.25;;;14.40;90.90;;;;;;5403580;26;20004;-69
2024/04/10 06:49:28;;;;;;;6.50;2.30;;;14.30;90.60;;;;;;5405830;26;20011;-69
2024/04/10 06:51:57;;;;;;;7.40;1.83;;;14.40;90.30;;;;;;5401140;26;20080;-69
2024/04/10 06:54:23;;;;;;;11.23;3.63;;;14.30;90.50;;;;;;5410495;26;19991;-69
2024/04/10 06:56:49;;;;;;;6.70;3.63;;;14.30;90.80;;;;;;5403827;26;19996;-69
2024/04/10 06:59:16;;;;;;;9.85;4.40;;;14.40;91.10;;;;;;5410163;26;19995;-69
2024/04/10 07:01:42;;;;;;;3.88;2.55;;;14.50;90.50;;;;;;5407658;26;20000;-69
2024/04/10 07:04:08;;;;;;;5.80;3.17;;;14.50;90.40;;;;;;5404653;26;19996;-69
2024/04/10 07:06:34;;;;;;;19.58;7.47;;;14.50;90.50;;;;;;5405521;26;19994;-68
2024/04/10 07:08:59;;;;;;;24.05;10.82;;;14.60;90.70;;;;;;5408005;26;19992;-68
2024/04/10 07:11:25;;;;;;;28.13;10.93;;;14.60;90.60;;;;;;5405365;26;19999;-69
2024/04/10 07:13:52;;;;;;;11.05;5.30;;;14.50;90.40;;;;;;5403897;26;20472;-69
2024/04/10 07:16:20;;;;;;;15.77;6.55;;;14.60;90.80;;;;;;5404350;26;20032;-69
2024/04/10 07:18:46;;;;;;;6.28;2.72;;;14.60;90.30;;;;;;5401241;26;19999;-67
2024/04/10 07:21:14;;;;;;;12.68;4.00;;;14.60;90.40;;;;;;5406084;26;19995;-69
2024/04/10 07:23:41;;;;;;;9.60;4.18;;;14.70;90.60;;;;;;5407427;26;20864;-69
2024/04/10 07:26:11;;;;;;;7.18;3.10;;;14.70;90.60;;;;;;5407804;26;20009;-69
2024/04/10 07:28:37;;;;;;;7.40;3.13;;;14.70;90.00;;;;;;5407665;26;20019;-68
2024/04/10 07:31:04;;;;;;;5.20;2.50;;;14.70;90.10;;;;;;5403018;26;20014;-68
2024/04/10 07:33:30;;;;;;;8.35;2.65;;;14.60;90.10;;;;;;5403871;26;20014;-68
2024/04/10 07:35:56;;;;;;;9.85;2.78;;;14.70;90.50;;;;;;5407101;26;20004;-69
2024/04/10 07:38:21;;;;;;;10.25;2.40;;;14.70;90.60;;;;;;5403933;26;20318;-68
2024/04/10 07:40:54;;;;;;;10.40;2.35;;;14.80;90.30;;;;;;5403726;26;19999;-68
2024/04/10 07:43:20;;;;;;;6.65;2.80;;;14.90;89.40;;;;;;5399501;26;20013;-68
2024/04/10 07:45:45;;;;;;;10.35;3.90;;;14.90;90.40;;;;;;5406258;26;20469;-70
2024/04/10 07:48:11;;;;;;;5.45;2.47;;;14.90;90.30;;;;;;5404946;26;20015;-69
2024/04/10 07:50:37;;;;;;;10.90;4.60;;;14.90;90.20;;;;;;5406022;26;20011;-69
2024/04/10 07:53:03;;;;;;;13.30;4.63;;;15.00;90.20;;;;;;5406380;26;19996;-69
2024/04/10 07:55:29;;;;;;;6.95;2.70;;;15.00;90.30;;;;;;5406671;26;20017;-68
2024/04/10 07:57:54;;;;;;;6.95;2.70;;;15.00;90.20;;;;;;5406367;26;20867;-68
2024/04/10 08:00:20;;;;;;;10.95;3.17;;;15.10;90.10;;;;;;5411186;26;20000;-68
2024/04/10 08:02:46;;;;;;;7.88;2.80;;;15.20;90.10;;;;;;5404530;26;20044;-68
2024/04/10 08:05:12;;;;;;;6.82;2.85;;;15.20;89.40;;;;;;5408380;26;20031;-68
2024/04/10 08:07:39;;;;;;;10.65;2.60;;;15.30;88.40;;;;;;5406931;26;20007;-68
2024/04/10 08:10:06;;;;;;;4.20;2.00;;;15.50;89.10;;;;;;5411010;26;20000;-67
2024/04/10 08:12:31;;;;;;;7.25;2.40;;;15.90;88.00;;;;;;5401349;26;20014;-68
2024/04/10 08:14:57;;;;;;;7.95;2.90;;;16.20;86.50;;;;;;5410555;26;20463;-69
2024/04/10 08:17:23;;;;;;;7.68;2.80;;;16.40;85.70;;;;;;5407520;26;19999;-69
2024/04/10 08:19:48;;;;;;;7.57;3.78;;;16.60;87.40;;;;;;5408533;26;20003;-68
2024/04/10 08:22:14;;;;;;;8.60;3.80;;;16.60;83.30;;;;;;5403376;26;20006;-69
2024/04/10 08:24:40;;;;;;;11.50;3.72;;;16.70;84.10;;;;;;5410199;26;20006;-69
2024/04/10 08:27:06;;;;;;;10.23;3.00;;;16.90;84.30;;;;;;5406030;26;20477;-69
2024/04/10 08:29:31;;;;;;;13.30;5.43;;;17.00;83.00;;;;;;5405343;26;20550;-69
2024/04/10 08:31:58;;;;;;;7.43;3.38;;;17.00;83.40;;;;;;5407019;26;20014;-69
2024/04/10 08:34:25;;;;;;;9.23;3.97;;;17.00;81.80;;;;;;5408401;26;20813;-69
2024/04/10 08:36:50;;;;;;;6.75;3.50;;;17.00;82.40;;;;;;5406000;26;20018;-69
2024/04/10 08:39:19;;;;;;;6.15;3.38;;;17.00;82.80;;;;;;5412069;26;19995;-68
2024/04/10 08:41:47;;;;;;;8.65;1.63;;;17.00;82.90;;;;;;5402243;26;20450;-68
2024/04/10 08:44:21;;;;;;;18.10;9.27;;;17.00;82.80;;;;;;5410476;26;20010;-69
2024/04/10 08:46:49;;;;;;;7.35;2.45;;;17.10;82.30;;;;;;5402010;26;20347;-69
2024/04/10 08:49:15;;;;;;;7.53;2.25;;;16.90;81.70;;;;;;5403903;26;20469;-69
2024/04/10 08:51:42;;;;;;;4.63;1.55;;;16.70;80.80;;;;;;5405769;26;19996;-69
2024/04/10 08:54:11;;;;;;;3.80;1.75;;;16.60;82.50;;;;;;5411223;26;20330;-69
2024/04/10 08:56:36;;;;;;;6.20;1.80;;;16.50;81.20;;;;;;5403063;26;19991;-69
2024/04/10 08:59:02;;;;;;;4.45;1.42;;;16.50;81.90;;;;;;5407485;26;20007;-69
2024/04/10 09:01:41;;;;;;;5.15;1.60;;;16.50;82.50;;;;;;5408040;26;20833;-69
2024/04/10 09:04:14;;;;;;;3.72;1.13;;;16.70;81.80;;;;;;5412612;26;20008;-69
2024/04/10 09:06:40;;;;;;;5.32;1.10;;;16.70;81.70;;;;;;5408304;26;20121;-69
2024/04/10 09:09:07;;;;;;;2.90;1.30;;;16.90;80.60;;;;;;5410906;26;20005;-69
2024/04/10 09:11:33;;;;;;;4.63;1.17;;;17.10;81.60;;;;;;5411691;26;20018;-68
2024/04/10 09:14:04;;;;;;;4.45;0.95;;;17.30;79.30;;;;;;5411012;26;20080;-70
2024/04/10 09:16:30;;;;;;;3.55;0.77;;;17.60;77.50;;;;;;5404669;26;20022;-69
2024/04/10 09:19:07;;;;;;;2.33;0.80;;;17.90;76.10;;;;;;5409948;26;20003;-69
2024/04/10 09:21:33;;;;;;;3.58;0.80;;;18.20;77.60;;;;;;5400914;26;20022;-69
2024/04/10 09:23:59;;;;;;;2.47;0.90;;;18.40;77.30;;;;;;5408293;26;20007;-69
2024/04/10 09:26:25;;;;;;;2.35;0.60;;;18.20;74.00;;;;;;5407942;26;19996;-69
2024/04/10 09:28:50;;;;;;;4.20;0.80;;;18.30;76.00;;;;;;5408708;26;20076;-69
2024/04/10 09:31:20;;;;;;;2.08;0.77;;;18.50;72.90;;;;;;5407506;26;20000;-69
2024/04/10 09:33:48;;;;;;;5.00;1.00;;;18.70;75.30;;;;;;5403185;26;20014;-69
2024/04/10 09:36:15;;;;;;;2.70;0.77;;;18.80;73.20;;;;;;5409416;26;20489;-69
2024/04/10 09:38:41;;;;;;;3.58;0.90;;;18.80;74.40;;;;;;5407098;26;20014;-69
2024/04/10 09:41:07;;;;;;;5.57;1.15;;;18.60;73.60;;;;;;5406589;26;20000;-69
2024/04/10 09:43:39;;;;;;;2.45;0.70;;;18.50;74.30;;;;;;5408079;26;20011;-69
2024/04/10 09:46:07;;;;;;;4.78;0.70;;;18.20;74.70;;;;;;5407736;26;20418;-70
2024/04/10 09:48:34;;;;;;;2.28;0.70;;;18.00;75.20;;;;;;5407607;26;20003;-71
2024/04/10 09:51:04;;;;;;;3.15;0.73;;;17.80;75.60;;;;;;5406482;26;19999;-69
2024/04/10 09:53:33;;;;;;;4.38;0.93;;;17.80;76.50;;;;;;5406924;26;20011;-69
2024/04/10 09:56:04;;;;;;;4.85;0.98;;;17.80;77.00;;;;;;5408702;26;20101;-69
2024/04/10 09:58:32;;;;;;;3.05;0.70;;;17.70;76.70;;;;;;5405376;26;20011;-69
2024/04/10 10:01:03;;;;;;;1.80;0.80;;;17.60;77.20;;;;;;5409228;26;19995;-69
2024/04/10 10:03:30;;;;;;;2.03;0.52;;;17.50;76.60;;;;;;5405022;26;20049;-69
2024/04/10 10:06:06;;;;;;;3.45;0.63;;;17.50;79.00;;;;;;5406356;26;20015;-69
2024/04/10 10:08:33;;;;;;;0.82;0.60;;;17.60;78.80;;;;;;5408922;26;20010;-69
2024/04/10 10:10:59;;;;;;;4.88;0.80;;;17.70;77.60;;;;;;5402582;26;20386;-69
2024/04/10 10:13:27;;;;;;;4.00;0.60;;;17.70;77.40;;;;;;5407030;26;20980;-69
2024/04/10 10:16:00;;;;;;;2.05;0.60;;;17.70;76.50;;;;;;5407623;26;20019;-69
2024/04/10 10:18:27;;;;;;;0.75;0.35;;;17.70;75.20;;;;;;5402903;26;20058;-69
2024/04/10 10:21:11;;;;;;;1.80;0.40;;;17.60;75.60;;;;;;5407713;26;20008;-69
2024/04/10 10:23:39;;;;;;;3.35;0.68;;;17.60;75.90;;;;;;5405624;26;20011;-69
2024/04/10 10:26:07;;;;;;;6.57;2.50;;;17.70;76.20;;;;;;5407719;26;20007;-69
2024/04/10 10:28:36;;;;;;;10.07;7.35;;;17.70;76.20;;;;;;5400769;26;20139;-69
2024/04/10 10:31:10;;;;;;;7.80;5.80;;;17.70;74.10;;;;;;5408039;26;20022;-69
2024/04/10 10:33:37;;;;;;;3.28;2.97;;;17.70;75.40;;;;;;5404700;26;20426;-69
2024/04/10 10:36:03;;;;;;;11.63;5.53;;;17.60;76.40;;;;;;5410575;26;20003;-68
2024/04/10 10:38:29;;;;;;;4.50;2.28;;;17.60;76.00;;;;;;5405280;26;20145;-69
2024/04/10 10:40:55;;;;;;;7.18;4.18;;;17.40;75.60;;;;;;5409819;26;20832;-69
2024/04/10 10:43:21;;;;;;;6.07;2.85;;;17.50;79.10;;;;;;5407822;26;19999;-69
2024/04/10 10:45:51;;;;;;;7.90;4.38;;;17.60;75.80;;;;;;5410022;26;20002;-69
2024/04/10 10:48:17;;;;;;;6.43;2.53;;;17.70;76.60;;;;;;5402293;26;20332;-70
2024/04/10 10:50:43;;;;;;;6.30;2.45;;;17.90;77.30;;;;;;5408841;26;19999;-70
2024/04/10 10:53:12;;;;;;;4.07;1.10;;;18.20;77.80;;;;;;5405792;26;20981;-69
2024/04/10 10:55:50;;;;;;;2.85;1.10;;;18.50;76.00;;;;;;5410275;26;20003;-70
2024/04/10 10:58:16;;;;;;;1.88;0.70;;;18.70;73.60;;;;;;5403125;26;20010;-69
2024/04/10 11:00:42;;;;;;;1.70;0.63;;;19.00;70.00;;;;;;5408809;26;19994;-69
2024/04/10 11:03:10;;;;;;;0.93;0.50;;;18.90;69.30;;;;;;5404907;26;19992;-69
2024/04/10 11:05:36;;;;;;;1.63;0.55;;;18.70;69.80;;;;;;5409071;26;20011;-68
2024/04/10 11:08:02;;;;;;;1.23;0.45;;;18.60;70.00;;;;;;5404180;26;20011;-69
2024/04/10 11:10:29;;;;;;;1.80;0.88;;;18.50;71.70;;;;;;5411243;26;19992;-69
2024/04/10 11:13:06;;;;;;;1.75;1.23;;;18.50;71.90;;;;;;5402640;26;20015;-69
2024/04/10 11:15:39;;;;;;;1.40;1.08;;;18.50;70.80;;;;;;5406851;26;20015;-69
2024/04/10 11:18:05;;;;;;;2.10;0.43;;;18.50;71.10;;;;;;5402783;26;20014;-69
2024/04/10 11:20:32;;;;;;;1.55;0.50;;;18.40;70.90;;;;;;5411659;26;20027;-69
2024/04/10 11:23:02;;;;;;;2.58;1.00;;;18.20;71.90;;;;;;5407609;26;20010;-69
2024/04/10 11:25:30;;;;;;;0.80;0.70;;;18.20;73.00;;;;;;5410231;26;20372;-68
2024/04/10 11:27:57;;;;;;;2.08;0.68;;;18.30;74.00;;;;;;5410458;26;20003;-69
2024/04/10 11:30:24;;;;;;;4.00;0.90;;;18.50;72.40;;;;;;5408957;26;20054;-69
2024/04/10 11:32:51;;;;;;;2.33;0.60;;;18.70;72.20;;;;;;5405021;26;20017;-69
2024/04/10 11:35:16;;;;;;;1.10;0.57;;;18.80;71.50;;;;;;5408710;26;19999;-69
2024/04/10 11:37:42;;;;;;;1.35;1.00;;;18.90;72.80;;;;;;5409183;26;20011;-69
2024/04/10 11:40:12;;;;;;;4.07;1.38;;;19.00;70.80;;;;;;5399302;26;19999;-69
2024/04/10 11:42:38;;;;;;;2.75;1.05;;;19.00;72.20;;;;;;5405749;26;20002;-69
2024/04/10 11:45:07;;;;;;;2.45;0.70;;;19.10;73.60;;;;;;5409920;26;20007;-69
2024/04/10 11:47:33;;;;;;;2.45;0.52;;;19.20;72.70;;;;;;5406852;26;20003;-70
2024/04/10 11:49:59;;;;;;;1.77;0.75;;;19.20;71.40;;;;;;5372933;26;20010;-70
2024/04/10 11:52:25;;;;;;;1.33;0.68;;;19.20;71.50;;;;;;5413727;26;21014;-69
2024/04/10 11:54:51;;;;;;;1.65;1.23;;;19.10;70.60;;;;;;5409583;26;20006;-69
2024/04/10 11:57:17;;;;;;;1.83;0.75;;;18.90;71.70;;;;;;5414284;26;20015;-69
2024/04/10 11:59:46;;;;;;;2.65;0.90;;;18.80;72.50;;;;;;5409098;26;20114;-69
2024/04/10 12:02:12;;;;;;;3.60;1.13;;;18.90;73.20;;;;;;5405117;26;20525;-70
2024/04/10 12:04:38;;;;;;;2.30;0.60;;;18.90;72.30;;;;;;5408771;26;20000;-70
2024/04/10 12:07:03;;;;;;;1.75;0.50;;;19.00;73.60;;;;;;5410633;26;20014;-69
2024/04/10 12:09:29;;;;;;;3.28;0.90;;;19.00;72.50;;;;;;5410980;26;20011;-69
2024/04/10 12:11:55;;;;;;;4.18;0.50;;;18.80;73.20;;;;;;5412783;26;20007;-69
2024/04/10 12:14:21;;;;;;;1.58;0.70;;;18.80;73.30;;;;;;5409160;26;20348;-69
2024/04/10 12:16:46;;;;;;;2.63;0.75;;;18.80;72.40;;;;;;5411010;26;20004;-69
2024/04/10 12:19:12;;;;;;;0.95;0.45;;;18.70;71.30;;;;;;5408724;26;20089;-69
2024/04/10 12:21:38;;;;;;;4.50;0.70;;;18.70;73.70;;;;;;5412866;26;20028;-69
2024/04/10 12:24:05;;;;;;;1.63;0.68;;;18.60;72.70;;;;;;5406021;26;19999;-69
2024/04/10 12:26:33;;;;;;;2.47;0.85;;;18.50;74.10;;;;;;5412842;26;20010;-70
2024/04/10 12:29:00;;;;;;;1.42;0.60;;;18.50;73.70;;;;;;5408248;26;20566;-69
2024/04/10 12:31:26;;;;;;;3.33;0.80;;;18.40;72.70;;;;;;5411918;26;20000;-69
2024/04/10 12:33:52;;;;;;;1.10;0.60;;;18.40;74.10;;;;;;5408859;26;20004;-69
2024/04/10 12:39:04;;;;;;;1.80;1.02;;;18.10;74.00;;;;;;5406598;26;20007;-69
2024/04/10 12:41:30;;;;;;;2.45;0.80;;;18.10;73.20;;;;;;5408452;26;20011;-69
2024/04/10 12:43:59;;;;;;;4.28;0.90;;;18.10;74.80;;;;;;5407449;26;20375;-69
2024/04/10 12:46:27;;;;;;;2.80;0.75;;;18.10;75.60;;;;;;5411350;26;20008;-69
2024/04/10 12:48:54;;;;;;;7.55;1.77;;;18.20;76.90;;;;;;5407724;26;20896;-69
2024/04/10 12:51:20;;;;;;;3.65;1.00;;;18.20;75.40;;;;;;5411401;26;20080;-70